Time;durP1;ratioP1;P1;durP2;ratioP2;P2;SDS_P1;SDS_P2;PMS_P1;PMS_P2;Temp;Humidity;BMP_temperature;BMP_pressure;BME280_temperature;BME280_humidity;BME280_pressure;Samples;Min_cycle;Max_cycle;Signal;HPM_P1;HPM_P2
2023/06/21 00:04:55;;;;;;;22.20;19.67;;;;;;;24.11;83.81;100473.35;5215197;55;1143079;-78
2023/06/21 00:10:01;;;;;;;20.05;17.98;;;;;;;24.07;86.64;100461.29;5197243;55;1142906;-72
2023/06/21 00:15:08;;;;;;;22.52;19.62;;;;;;;24.06;88.87;100455.05;5196435;55;1143034;-74
2023/06/21 00:20:14;;;;;;;27.95;19.62;;;;;;;24.07;90.70;100447.78;5202737;55;1143225;-83
2023/06/21 00:25:20;;;;;;;20.55;18.45;;;;;;;24.05;91.36;100439.05;5230180;55;1142806;-74
2023/06/21 00:30:25;;;;;;;26.23;18.57;;;;;;;23.99;90.24;100432.59;5196081;55;1143141;-73
2023/06/21 00:35:31;;;;;;;21.95;18.52;;;;;;;24.01;89.88;100433.22;5196041;54;1143238;-81
2023/06/21 00:40:37;;;;;;;24.55;19.92;;;;;;;24.07;89.51;100430.22;5217657;54;1142815;-70
2023/06/21 00:45:45;;;;;;;22.07;18.82;;;;;;;24.03;88.78;100427.09;5198430;53;1143296;-78
2023/06/21 00:50:49;;;;;;;20.30;17.23;;;;;;;24.07;88.60;100421.59;5218248;54;1143191;-72
2023/06/21 00:55:57;;;;;;;19.80;17.15;;;;;;;24.08;87.68;100409.75;5187054;55;1142999;-70
2023/06/21 01:01:03;;;;;;;18.70;16.77;;;;;;;24.09;87.12;100421.38;5150787;55;1142871;-70
2023/06/21 01:06:22;;;;;;;16.87;15.13;;;;;;;24.07;86.12;100423.46;5216503;55;1143240;-77
2023/06/21 01:11:32;;;;;;;17.05;15.35;;;;;;;24.07;86.95;100413.48;5218013;55;1143205;-72
2023/06/21 01:16:42;;;;;;;17.42;15.68;;;;;;;24.07;86.04;100407.25;5236456;55;1142989;-76
2023/06/21 01:21:48;;;;;;;19.77;17.77;;;;;;;24.01;84.83;100418.36;5217805;55;1143198;-68
2023/06/21 01:27:27;;;;;;;19.27;17.27;;;;;;;23.90;84.26;100427.10;5216810;55;1143123;-76
2023/06/21 01:32:33;;;;;;;19.23;17.20;;;;;;;23.76;84.93;100434.38;5174920;55;1142845;-71
2023/06/21 01:37:44;;;;;;;20.90;16.62;;;;;;;23.77;85.25;100431.98;5195395;55;1143003;-76
2023/06/21 01:42:50;;;;;;;16.62;14.93;;;;;;;23.74;84.63;100429.70;5219358;55;1142941;-70
2023/06/21 01:47:58;;;;;;;17.62;15.72;;;;;;;23.72;83.98;100437.16;5214939;55;1143303;-73
2023/06/21 01:53:06;;;;;;;21.87;15.40;;;;;;;23.77;83.70;100444.14;5160566;54;1143025;-72
2023/06/21 01:58:12;;;;;;;18.07;15.50;;;;;;;23.82;83.41;100450.28;5105389;56;1143144;-79
2023/06/21 02:03:19;;;;;;;21.77;15.83;;;;;;;23.81;83.14;100455.38;5170890;55;1143109;-80
2023/06/21 02:08:26;;;;;;;18.87;16.12;;;;;;;23.80;83.56;100453.19;5196331;55;1143028;-72
2023/06/21 02:13:32;;;;;;;17.07;15.30;;;;;;;23.78;83.28;100462.02;5215497;55;1142882;-73
2023/06/21 02:18:38;;;;;;;18.45;14.55;;;;;;;23.76;82.69;100468.65;5197409;55;1143280;-67
2023/06/21 02:23:44;;;;;;;17.17;15.55;;;;;;;23.77;82.71;100455.46;5218729;55;1143215;-71
2023/06/21 02:28:50;;;;;;;17.15;14.58;;;;;;;23.77;83.11;100454.94;5183827;55;1142811;-72
2023/06/21 02:33:56;;;;;;;20.54;14.86;;;;;;;23.61;83.38;100448.59;5104557;55;1142912;-74
2023/06/21 02:39:03;;;;;;;24.18;14.25;;;;;;;23.34;84.28;100453.59;5104150;55;1142652;-71
2023/06/21 02:44:08;;;;;;;18.67;15.48;;;;;;;23.14;85.75;100455.70;5122895;55;1142755;-72
2023/06/21 02:49:14;;;;;;;18.07;15.08;;;;;;;23.01;90.07;100450.78;5172731;54;1143401;-76
2023/06/21 02:54:20;;;;;;;22.47;16.30;;;;;;;22.93;89.79;100434.75;5196247;55;1145966;-78
2023/06/21 02:59:31;;;;;;;17.57;12.85;;;;;;;22.61;91.11;100419.53;5216478;55;1143107;-78
2023/06/21 03:04:33;;;;;;;21.62;14.55;;;;;;;22.45;92.62;100418.03;5194339;55;1142778;-75
2023/06/21 03:09:39;;;;;;;15.83;13.18;;;;;;;22.40;94.43;100416.95;5195533;55;1143137;-73
2023/06/21 03:14:46;;;;;;;19.55;13.53;;;;;;;22.40;94.43;100416.95;5217078;55;1142799;-74
2023/06/21 03:19:52;;;;;;;29.64;12.00;;;;;;;22.39;94.89;100423.36;5201423;55;1143160;-73
2023/06/21 03:24:58;;;;;;;14.65;11.15;;;;;;;22.50;94.63;100433.58;5200460;54;1143166;-73
2023/06/21 03:30:11;;;;;;;12.37;11.10;;;;;;;22.59;93.53;100435.11;5216316;54;1142892;-81
2023/06/21 03:35:20;;;;;;;12.03;10.03;;;;;;;22.69;92.78;100439.60;5196576;54;1142795;-73
2023/06/21 03:40:28;;;;;;;11.30;9.78;;;;;;;22.84;91.33;100444.06;5197859;54;1143156;-73
2023/06/21 03:45:34;;;;;;;9.68;8.68;;;;;;;22.96;89.89;100447.84;5218192;54;1140955;-79
2023/06/21 03:50:40;;;;;;;9.30;8.40;;;;;;;23.07;88.47;100449.95;5182592;54;1138606;-73
2023/06/21 03:55:46;;;;;;;9.98;7.95;;;;;;;23.12;87.39;100459.63;5058432;56;1138655;-72
2023/06/21 04:00:53;;;;;;;9.13;7.47;;;;;;;23.12;87.42;100463.16;5178317;56;1139000;-72
2023/06/21 04:05:58;;;;;;;8.88;6.53;;;;;;;23.16;86.68;100444.71;5231150;54;1138697;-75
2023/06/21 04:11:04;;;;;;;10.60;7.30;;;;;;;23.21;86.76;100442.77;5232596;54;1138867;-76
2023/06/21 04:16:11;;;;;;;7.83;7.12;;;;;;;23.26;86.82;100441.61;5251594;54;1140839;-71
2023/06/21 04:21:16;;;;;;;7.78;7.00;;;;;;;23.26;86.71;100434.35;5232272;54;1138566;-73
2023/06/21 04:26:22;;;;;;;6.60;6.00;;;;;;;23.22;87.31;100425.54;5232004;55;1138612;-79
2023/06/21 04:31:28;;;;;;;6.67;6.10;;;;;;;23.34;87.64;100436.05;5252331;55;1138499;-76
2023/06/21 04:36:34;;;;;;;6.17;5.67;;;;;;;23.45;87.28;100428.17;5232445;55;1138896;-78
2023/06/21 04:41:39;;;;;;;7.60;6.03;;;;;;;23.56;86.88;100425.41;5166268;55;1138794;-77
2023/06/21 04:46:47;;;;;;;5.55;5.05;;;;;;;23.65;85.57;100422.02;5165476;55;1138799;-71
2023/06/21 04:51:57;;;;;;;5.83;5.42;;;;;;;23.70;84.98;100434.36;5171801;55;1139199;-71
2023/06/21 04:57:05;;;;;;;5.50;5.00;;;;;;;23.71;84.65;100417.11;5218647;55;1138990;-73
2023/06/21 05:02:11;;;;;;;6.65;5.85;;;;;;;23.76;85.16;100413.28;5202641;55;1138872;-74
2023/06/21 05:07:16;;;;;;;9.60;5.97;;;;;;;23.82;85.00;100389.52;5045816;56;1138885;-70
2023/06/21 05:12:22;;;;;;;6.73;6.10;;;;;;;23.94;84.26;100378.89;5132252;56;1138882;-70
2023/06/21 05:17:27;;;;;;;7.47;6.22;;;;;;;24.10;84.69;100371.70;5066661;56;1138935;-77
2023/06/21 05:22:33;;;;;;;10.98;6.72;;;;;;;24.25;84.66;100349.36;5132441;55;1138788;-75
2023/06/21 05:27:40;;;;;;;5.33;4.92;;;;;;;24.41;84.17;100354.30;5045159;57;1140920;-80
2023/06/21 05:32:46;;;;;;;9.65;5.55;;;;;;;24.63;82.31;100361.59;5066938;57;1138661;-73
2023/06/21 05:37:53;;;;;;;7.62;5.65;;;;;;;24.82;81.92;100347.15;5023774;57;1139008;-72
2023/06/21 05:43:01;;;;;;;5.64;5.22;;;;;;;25.01;80.96;100344.06;5040630;55;1138813;-79
2023/06/21 05:48:06;;;;;;;4.28;3.98;;;;;;;25.17;79.43;100354.38;5060895;55;1139397;-74
2023/06/21 05:53:12;;;;;;;8.53;5.37;;;;;;;25.31;77.98;100404.37;5055720;56;1138987;-76
2023/06/21 05:58:20;;;;;;;14.30;6.03;;;;;;;25.30;76.99;100475.28;5190600;54;1139016;-76
2023/06/21 06:03:26;;;;;;;18.62;7.35;;;;;;;25.13;77.59;100474.94;5236880;54;1140836;-73
2023/06/21 06:08:32;;;;;;;24.67;8.45;;;;;;;24.30;92.92;100515.77;5022105;57;1141073;-69
2023/06/21 06:13:38;;;;;;;14.30;5.80;;;;;;;23.08;99.15;100483.47;5130074;54;1140936;-74
2023/06/21 06:18:45;;;;;;;10.18;4.53;;;;;;;22.45;100.00;100477.83;5106122;56;1141497;-77
2023/06/21 06:23:53;;;;;;;9.05;4.70;;;;;;;21.97;100.00;100484.37;5250177;54;1143379;-75
2023/06/21 06:28:58;;;;;;;6.62;3.75;;;;;;;21.82;100.00;100462.58;5274019;54;1141115;-71
2023/06/21 06:34:04;;;;;;;5.50;3.62;;;;;;;21.72;100.00;100465.06;5298903;54;1141184;-77
2023/06/21 06:39:10;;;;;;;7.13;3.70;;;;;;;21.63;100.00;100466.74;5232941;54;1140861;-68
2023/06/21 06:44:16;;;;;;;8.10;3.65;;;;;;;21.54;100.00;100456.59;5224061;55;1140702;-75
2023/06/21 06:49:21;;;;;;;4.97;3.90;;;;;;;21.58;100.00;100453.02;5224343;55;1140997;-69
2023/06/21 06:54:27;;;;;;;10.90;5.12;;;;;;;21.71;100.00;100452.62;5243803;55;1140829;-76
2023/06/21 06:59:33;;;;;;;5.85;5.35;;;;;;;21.93;100.00;100451.28;5218029;55;1142877;-76
2023/06/21 07:04:38;;;;;;;6.33;5.53;;;;;;;22.08;100.00;100460.14;5300766;54;1140863;-70
2023/06/21 07:09:44;;;;;;;8.60;6.95;;;;;;;22.15;100.00;100458.34;5236995;53;1140873;-70
2023/06/21 07:14:50;;;;;;;7.55;6.75;;;;;;;22.19;100.00;100472.23;5242089;54;1140941;-73
2023/06/21 07:19:56;;;;;;;8.58;7.62;;;;;;;22.21;100.00;100476.40;5309472;54;1140972;-73
2023/06/21 07:25:02;;;;;;;10.60;7.10;;;;;;;22.28;100.00;100471.08;5306880;54;1140812;-73
2023/06/21 07:30:09;;;;;;;9.00;7.57;;;;;;;22.37;100.00;100494.14;5288909;54;1143175;-75
2023/06/21 07:35:15;;;;;;;8.70;7.77;;;;;;;22.40;100.00;100506.71;5218072;53;1140766;-76
2023/06/21 07:40:21;;;;;;;10.08;9.05;;;;;;;22.46;100.00;100512.64;5266321;54;1140829;-76
2023/06/21 07:45:27;;;;;;;10.88;8.65;;;;;;;22.54;100.00;100527.85;5285314;55;1143191;-69
2023/06/21 07:50:32;;;;;;;11.70;9.93;;;;;;;22.62;100.00;100540.33;5267909;54;1142956;-75
2023/06/21 07:55:38;;;;;;;11.57;9.15;;;;;;;22.58;100.00;100553.40;5288519;54;1142949;-72
2023/06/21 08:00:44;;;;;;;11.28;10.08;;;;;;;22.52;100.00;100560.91;5292840;54;1143321;-71
2023/06/21 08:05:49;;;;;;;10.88;9.78;;;;;;;22.48;100.00;100574.45;5236350;54;1144901;-76
2023/06/21 08:10:56;;;;;;;15.00;10.93;;;;;;;22.52;100.00;100577.59;5289501;54;1143346;-73
2023/06/21 08:16:01;;;;;;;10.68;9.75;;;;;;;22.53;100.00;100566.62;5312108;54;1145127;-77
2023/06/21 08:21:08;;;;;;;14.75;12.43;;;;;;;22.53;100.00;100563.92;5292002;54;1142817;-70
2023/06/21 08:26:13;;;;;;;13.95;12.50;;;;;;;22.53;100.00;100572.52;5290915;54;1145185;-76
2023/06/21 08:31:19;;;;;;;18.97;12.60;;;;;;;22.55;100.00;100587.99;5291420;54;1145122;-70
2023/06/21 08:36:26;;;;;;;16.62;13.10;;;;;;;22.56;100.00;100574.83;5312305;54;1145134;-70
2023/06/21 08:41:32;;;;;;;17.25;13.32;;;;;;;22.56;100.00;100581.58;5290377;54;1144947;-71
2023/06/21 08:46:39;;;;;;;14.93;13.32;;;;;;;22.56;100.00;100576.18;5291903;54;1144893;-75
2023/06/21 08:51:46;;;;;;;16.97;13.75;;;;;;;22.54;100.00;100564.24;5311758;54;1145099;-77
2023/06/21 08:57:02;;;;;;;14.33;13.03;;;;;;;22.62;100.00;100568.13;5228918;54;1145023;-73
2023/06/21 09:02:27;;;;;;;17.27;13.50;;;;;;;22.65;100.00;100573.13;5270195;53;1145117;-75
2023/06/21 09:07:35;;;;;;;16.80;14.65;;;;;;;22.69;100.00;100569.53;5249723;53;1145331;-73
2023/06/21 09:12:43;;;;;;;21.07;14.70;;;;;;;22.76;100.00;100565.87;5322653;53;1145006;-78
2023/06/21 09:17:49;;;;;;;16.23;14.15;;;;;;;22.87;100.00;100556.42;5302234;53;1145135;-71
2023/06/21 09:22:57;;;;;;;18.50;14.45;;;;;;;22.93;100.00;100544.82;5300192;53;1144934;-78
2023/06/21 09:28:03;;;;;;;19.15;12.70;;;;;;;22.99;100.00;100541.34;5318006;53;1145066;-69
2023/06/21 09:33:09;;;;;;;15.50;13.03;;;;;;;23.05;100.00;100537.02;5302013;53;1145099;-74
2023/06/21 09:38:32;;;;;;;15.58;12.33;;;;;;;23.17;100.00;100535.94;5283165;53;1145122;-81
2023/06/21 09:43:47;;;;;;;12.80;11.50;;;;;;;23.29;100.00;100535.67;5234506;54;1144945;-81
2023/06/21 09:48:49;;;;;;;10.78;9.60;;;;;;;23.34;100.00;100539.95;5229805;55;1145537;-73
2023/06/21 09:53:55;;;;;;;12.30;10.50;;;;;;;23.38;100.00;100551.99;5212027;55;1142930;-80
2023/06/21 09:59:02;;;;;;;13.38;11.95;;;;;;;23.29;100.00;100561.31;5258395;53;1145081;-69
2023/06/21 10:04:13;;;;;;;11.65;9.53;;;;;;;23.25;100.00;100552.77;5315476;54;1145226;-74
2023/06/21 10:09:19;;;;;;;14.80;9.58;;;;;;;23.24;100.00;100555.16;5300542;54;1142708;-76
2023/06/21 10:14:26;;;;;;;12.25;10.15;;;;;;;23.19;100.00;100563.55;5300103;54;1143076;-77
2023/06/21 10:19:32;;;;;;;13.40;9.95;;;;;;;23.17;100.00;100563.75;5322097;54;1145036;-70
2023/06/21 10:24:54;;;;;;;12.95;8.38;;;;;;;23.20;100.00;100566.05;5300574;54;1143266;-75
2023/06/21 10:30:04;;;;;;;9.90;8.48;;;;;;;23.39;100.00;100564.45;5301293;54;1143080;-75
2023/06/21 10:35:22;;;;;;;8.50;6.87;;;;;;;23.70;100.00;100553.17;5321078;54;1140955;-75
2023/06/21 10:40:29;;;;;;;11.75;6.67;;;;;;;24.13;100.00;100551.00;5213220;54;1140825;-72
2023/06/21 10:45:36;;;;;;;7.97;6.83;;;;;;;24.52;100.00;100536.15;5256496;53;1143141;-78
2023/06/21 10:50:43;;;;;;;7.55;6.17;;;;;;;24.84;100.00;100542.55;5323783;54;1141121;-76
2023/06/21 10:55:50;;;;;;;11.53;7.20;;;;;;;25.17;100.00;100545.20;5238140;54;1140933;-70
2023/06/21 11:00:58;;;;;;;10.80;6.95;;;;;;;25.46;100.00;100537.06;5274472;54;1143167;-72
2023/06/21 11:06:29;;;;;;;12.43;7.85;;;;;;;25.80;100.00;100524.20;5309538;54;1143152;-76
2023/06/21 11:11:40;;;;;;;10.45;7.97;;;;;;;26.14;100.00;100525.60;5288256;54;1142886;-82
2023/06/21 11:16:45;;;;;;;7.47;6.58;;;;;;;26.40;100.00;100534.09;5288204;54;1142921;-73
2023/06/21 11:21:51;;;;;;;7.00;6.30;;;;;;;26.67;100.00;100523.81;5309888;54;1140932;-76
2023/06/21 11:27:03;;;;;;;7.17;5.75;;;;;;;26.99;100.00;100524.03;5207797;54;1140868;-73
2023/06/21 11:32:18;;;;;;;11.73;7.20;;;;;;;27.20;100.00;100530.34;5180880;55;1141122;-76
2023/06/21 11:37:47;;;;;;;10.03;7.67;;;;;;;27.41;100.00;100526.33;5256835;53;1143023;-76
2023/06/21 11:42:52;;;;;;;12.95;7.65;;;;;;;27.59;100.00;100517.34;5310247;54;1143116;-73
2023/06/21 11:48:10;;;;;;;7.72;7.08;;;;;;;27.75;100.00;100526.73;5299528;54;1142803;-72
2023/06/21 11:53:28;;;;;;;13.37;8.20;;;;;;;27.96;100.00;100530.27;5283423;53;1140803;-71
2023/06/21 11:58:35;;;;;;;10.30;8.23;;;;;;;28.06;100.00;100535.16;5257130;53;1142719;-73
2023/06/21 12:03:41;;;;;;;11.00;9.35;;;;;;;28.21;100.00;100526.05;5238499;54;1142825;-72
2023/06/21 12:08:48;;;;;;;11.90;8.73;;;;;;;28.29;100.00;100512.92;5172254;54;1143017;-76
2023/06/21 12:13:54;;;;;;;9.68;8.45;;;;;;;28.39;100.00;100519.16;5207670;54;1142980;-77
2023/06/21 12:19:00;;;;;;;14.35;9.05;;;;;;;28.48;100.00;100515.00;5246295;55;1140697;-71
2023/06/21 12:24:06;;;;;;;17.85;11.35;;;;;;;28.64;100.00;100503.94;5224537;55;1142947;-73
2023/06/21 12:29:11;;;;;;;11.93;9.30;;;;;;;28.77;100.00;100509.13;5225472;55;1144967;-76
2023/06/21 12:34:18;;;;;;;10.43;9.18;;;;;;;28.89;100.00;100510.50;5293895;54;1143003;-76
2023/06/21 12:39:23;;;;;;;11.38;9.90;;;;;;;29.00;100.00;100503.69;5336451;53;1143171;-74
2023/06/21 12:44:35;;;;;;;10.05;9.08;;;;;;;29.17;100.00;100501.05;5315832;54;1143020;-77
2023/06/21 12:49:36;;;;;;;11.65;10.45;;;;;;;29.24;100.00;100509.06;5310820;54;1142897;-71
2023/06/21 12:54:57;;;;;;;14.13;11.68;;;;;;;29.32;100.00;100508.16;5337055;54;1144972;-73
2023/06/21 13:00:03;;;;;;;12.53;10.80;;;;;;;29.49;100.00;100506.86;5317630;54;1145294;-72
2023/06/21 13:05:09;;;;;;;12.28;11.03;;;;;;;29.62;100.00;100500.31;5316395;54;1145144;-79
2023/06/21 13:10:14;;;;;;;20.05;12.30;;;;;;;29.72;100.00;100499.95;5302095;53;1145097;-76
2023/06/21 13:15:20;;;;;;;18.35;12.58;;;;;;;29.90;100.00;100492.62;5256225;53;1144989;-72
2023/06/21 13:20:26;;;;;;;15.05;13.10;;;;;;;30.00;100.00;100500.46;5205878;54;1145134;-79
2023/06/21 13:25:32;;;;;;;16.40;13.53;;;;;;;30.10;100.00;100496.27;5147606;54;1145213;-74
2023/06/21 13:30:37;;;;;;;19.55;14.03;;;;;;;30.11;100.00;100494.63;5236710;54;1145089;-72
2023/06/21 13:35:44;;;;;;;15.45;12.15;;;;;;;30.16;100.00;100482.98;5233365;54;1145356;-74
2023/06/21 13:40:50;;;;;;;12.00;10.80;;;;;;;30.14;100.00;100481.86;5205338;54;1145038;-75
2023/06/21 13:45:56;;;;;;;13.05;11.83;;;;;;;30.00;100.00;100488.19;5256098;54;1145175;-75
2023/06/21 13:51:02;;;;;;;18.07;12.03;;;;;;;29.96;100.00;100471.98;5209416;54;1145105;-79
2023/06/21 13:56:07;;;;;;;15.00;11.53;;;;;;;30.07;100.00;100472.50;5234116;54;1145091;-75
2023/06/21 14:01:13;;;;;;;15.08;11.55;;;;;;;30.15;100.00;100473.97;5240241;54;1145022;-74
2023/06/21 14:06:18;;;;;;;14.35;11.30;;;;;;;30.18;100.00;100462.56;5234507;54;1145173;-70
2023/06/21 14:11:24;;;;;;;16.77;11.57;;;;;;;30.23;100.00;100467.28;5234374;54;1145075;-78
2023/06/21 14:16:30;;;;;;;19.98;12.80;;;;;;;30.16;100.00;100470.17;5308858;54;1145256;-70
2023/06/21 14:21:35;;;;;;;13.25;11.75;;;;;;;30.11;100.00;100450.98;5278314;54;1145222;-73
2023/06/21 14:26:41;;;;;;;14.50;11.10;;;;;;;30.00;100.00;100441.82;5289203;53;1145148;-72
2023/06/21 14:31:47;;;;;;;13.83;11.63;;;;;;;29.87;100.00;100432.58;5322253;54;1145125;-71
2023/06/21 14:36:52;;;;;;;14.47;12.70;;;;;;;29.60;100.00;100469.73;5299878;54;1144915;-77
2023/06/21 14:41:58;;;;;;;15.43;13.88;;;;;;;28.91;100.00;100470.25;5302186;54;1145089;-74
2023/06/21 14:47:05;;;;;;;17.00;13.28;;;;;;;28.46;100.00;100487.73;5309446;53;1145440;-72
2023/06/21 14:52:11;;;;;;;17.55;15.28;;;;;;;28.33;100.00;100496.43;5279139;54;1144996;-77
2023/06/21 14:57:17;;;;;;;18.23;16.30;;;;;;;28.30;100.00;100520.55;5301512;54;1145059;-77
2023/06/21 15:02:23;;;;;;;14.55;13.03;;;;;;;28.52;100.00;100548.02;5302525;54;1145219;-76
2023/06/21 15:07:29;;;;;;;20.48;16.55;;;;;;;28.80;100.00;100570.48;5323160;54;1144980;-77
2023/06/21 15:12:35;;;;;;;14.95;13.15;;;;;;;29.09;100.00;100574.95;5301788;54;1145095;-78
2023/06/21 15:17:40;;;;;;;15.83;14.43;;;;;;;29.09;100.00;100574.95;5244736;54;1144990;-76
2023/06/21 15:22:46;;;;;;;21.75;14.53;;;;;;;28.86;100.00;100577.17;5255250;54;1145541;-71
2023/06/21 15:27:52;;;;;;;16.85;15.20;;;;;;;28.70;100.00;100595.55;5204310;54;1145223;-74
2023/06/21 15:32:57;;;;;;;16.85;15.28;;;;;;;28.84;100.00;100598.89;5233318;54;1145013;-80
2023/06/21 15:38:03;;;;;;;16.48;14.53;;;;;;;28.98;100.00;100590.77;5177695;54;1144987;-73
2023/06/21 15:43:08;;;;;;;15.78;14.23;;;;;;;29.10;100.00;100588.03;5142764;55;1144968;-84
2023/06/21 15:48:14;;;;;;;16.73;15.20;;;;;;;29.17;100.00;100587.38;5142274;55;1145109;-78
2023/06/21 15:53:20;;;;;;;15.98;14.38;;;;;;;29.11;100.00;100580.16;5154177;54;1145203;-73
2023/06/21 15:58:26;;;;;;;16.23;14.50;;;;;;;28.73;100.00;100586.05;5255093;54;1145181;-77
2023/06/21 16:03:32;;;;;;;16.77;15.05;;;;;;;28.53;100.00;100596.77;5235191;54;1145334;-76
2023/06/21 16:08:37;;;;;;;20.15;16.37;;;;;;;28.42;100.00;100598.92;5192761;53;1145275;-80
2023/06/21 16:13:44;;;;;;;16.27;14.85;;;;;;;28.31;100.00;100597.84;5247128;54;1144989;-75
2023/06/21 16:18:52;;;;;;;18.12;16.35;;;;;;;28.09;100.00;100610.30;5232907;54;1144925;-74
2023/06/21 16:23:58;;;;;;;26.02;18.40;;;;;;;27.94;100.00;100605.82;5198609;54;1145083;-77
2023/06/21 16:29:03;;;;;;;18.27;16.62;;;;;;;27.75;100.00;100628.13;5253250;54;1145107;-76
2023/06/21 16:34:09;;;;;;;11.45;10.45;;;;;;;27.53;100.00;100650.82;5207778;54;1145371;-86
2023/06/21 16:39:15;;;;;;;8.23;6.85;;;;;;;27.18;100.00;100675.56;5152224;55;1145302;-76
2023/06/21 16:44:21;;;;;;;8.60;7.20;;;;;;;26.48;100.00;100672.13;5170151;54;1141106;-78
2023/06/21 16:49:26;;;;;;;8.43;6.80;;;;;;;25.84;100.00;100671.20;5253893;54;1140759;-75
2023/06/21 16:54:32;;;;;;;8.45;7.58;;;;;;;25.49;100.00;100676.11;5091712;55;1140848;-74
2023/06/21 16:59:37;;;;;;;7.10;6.50;;;;;;;25.34;100.00;100676.05;5233922;54;1140748;-80
2023/06/21 17:04:43;;;;;;;7.78;6.30;;;;;;;25.25;100.00;100671.36;5248445;54;1140862;-82
2023/06/21 17:09:48;;;;;;;9.10;7.10;;;;;;;25.16;100.00;100679.40;5234975;54;1140822;-72
2023/06/21 17:14:54;;;;;;;14.47;6.30;;;;;;;25.23;100.00;100676.98;5226827;54;1140903;-80
2023/06/21 17:20:00;;;;;;;8.78;6.67;;;;;;;25.45;100.00;100678.09;5272442;54;1142981;-75
2023/06/21 17:25:06;;;;;;;7.97;7.15;;;;;;;25.35;100.00;100674.48;5229472;54;1140780;-72
2023/06/21 17:30:13;;;;;;;7.02;6.42;;;;;;;25.27;100.00;100683.33;5206488;54;1140822;-74
2023/06/21 17:35:19;;;;;;;7.17;6.57;;;;;;;25.20;100.00;100684.19;5293384;54;1140974;-75
2023/06/21 17:40:24;;;;;;;10.90;7.85;;;;;;;25.24;100.00;100677.81;5319663;54;1140926;-74
2023/06/21 17:45:31;;;;;;;12.78;8.63;;;;;;;25.30;100.00;100678.86;5288156;54;1143087;-76
2023/06/21 17:50:37;;;;;;;6.87;6.30;;;;;;;25.36;100.00;100678.02;5172599;55;1143025;-78
2023/06/21 17:55:43;;;;;;;10.88;8.53;;;;;;;25.34;100.00;100667.41;5136469;56;1140956;-81
2023/06/21 18:00:48;;;;;;;9.90;8.45;;;;;;;25.39;100.00;100659.45;5093466;56;1143112;-78
2023/06/21 18:05:54;;;;;;;9.25;8.15;;;;;;;25.41;100.00;100674.97;5097608;54;1141023;-79
2023/06/21 18:11:01;;;;;;;11.08;8.50;;;;;;;25.30;100.00;100663.96;5087599;55;1141054;-71
2023/06/21 18:16:06;;;;;;;8.98;8.10;;;;;;;25.23;100.00;100670.21;5084652;55;1143250;-71
2023/06/21 18:21:12;;;;;;;9.05;7.78;;;;;;;25.30;100.00;100676.14;5056947;56;1141435;-75
2023/06/21 18:26:18;;;;;;;9.10;8.13;;;;;;;25.36;100.00;100669.90;5147217;55;1141248;-75
2023/06/21 18:31:24;;;;;;;9.80;8.90;;;;;;;25.30;100.00;100669.38;5151777;55;1141105;-76
2023/06/21 18:36:29;;;;;;;17.85;9.58;;;;;;;25.23;100.00;100664.80;5171943;54;1140997;-78
2023/06/21 18:41:35;;;;;;;11.08;9.98;;;;;;;25.24;100.00;100668.34;5183242;54;1142841;-72
2023/06/21 18:46:40;;;;;;;10.60;9.53;;;;;;;25.27;100.00;100676.05;5207359;55;1143166;-72
2023/06/21 18:51:46;;;;;;;11.63;10.50;;;;;;;25.18;100.00;100675.97;5172684;55;1142947;-78
2023/06/21 18:56:52;;;;;;;16.57;10.35;;;;;;;25.20;100.00;100676.59;5186936;55;1145106;-76
2023/06/21 19:01:57;;;;;;;14.85;12.03;;;;;;;25.42;100.00;100675.28;5172766;55;1145233;-77
2023/06/21 19:07:03;;;;;;;21.07;15.30;;;;;;;25.55;100.00;100677.95;5139372;55;1145450;-74
2023/06/21 19:12:10;;;;;;;23.18;16.96;;;;;;;25.70;100.00;100686.38;5246177;55;1144910;-74
2023/06/21 19:17:15;;;;;;;20.92;16.25;;;;;;;25.79;100.00;100702.20;5139168;54;1145085;-71
2023/06/21 19:22:21;;;;;;;19.82;14.93;;;;;;;25.82;100.00;100706.33;5230109;53;1145232;-78
2023/06/21 19:27:26;;;;;;;20.47;16.37;;;;;;;25.88;100.00;100716.33;5223039;54;1145183;-80
2023/06/21 19:32:32;;;;;;;21.73;17.60;;;;;;;25.76;100.00;100725.65;5223840;54;1145234;-74
2023/06/21 19:37:38;;;;;;;26.35;21.55;;;;;;;25.54;100.00;100738.58;5241841;54;1145334;-78
2023/06/21 19:42:46;;;;;;;21.77;15.72;;;;;;;25.37;100.00;100743.29;5223290;54;1145192;-74
2023/06/21 19:47:52;;;;;;;14.95;13.40;;;;;;;25.18;100.00;100767.48;5197973;54;1145010;-69
2023/06/21 19:52:58;;;;;;;16.25;14.68;;;;;;;24.86;100.00;100778.56;5242165;53;1144841;-80
2023/06/21 19:58:03;;;;;;;15.70;14.13;;;;;;;24.67;100.00;100789.34;5217998;54;1145494;-75
2023/06/21 20:03:10;;;;;;;21.22;15.62;;;;;;;24.49;100.00;100793.44;5228500;54;1145110;-78
2023/06/21 20:08:16;;;;;;;18.55;16.20;;;;;;;24.48;100.00;100793.64;5238248;54;1145326;-75
2023/06/21 20:13:22;;;;;;;17.32;15.43;;;;;;;24.42;100.00;100804.77;5218842;54;1145237;-70
2023/06/21 20:18:27;;;;;;;20.77;15.73;;;;;;;24.41;100.00;100819.33;5202712;54;1145013;-78
2023/06/21 20:23:34;;;;;;;17.73;15.83;;;;;;;24.39;100.00;100815.98;5217277;54;1145320;-78
2023/06/21 20:28:39;;;;;;;21.95;15.65;;;;;;;24.26;100.00;100812.39;5210104;55;1145061;-71
2023/06/21 20:33:45;;;;;;;19.90;17.87;;;;;;;24.09;100.00;100810.51;5158441;54;1145268;-81
2023/06/21 20:38:51;;;;;;;20.55;17.05;;;;;;;23.99;100.00;100807.31;5197808;54;1144803;-83
2023/06/21 20:43:57;;;;;;;23.15;18.42;;;;;;;23.87;100.00;100811.09;5217085;55;1145237;-85
2023/06/21 20:49:03;;;;;;;23.02;20.48;;;;;;;23.91;100.00;100816.43;5195573;55;1195663;-86
2023/06/21 20:54:12;;;;;;;20.95;18.45;;;;;;;24.12;100.00;100816.36;5159345;55;1145047;-78
2023/06/21 20:59:18;;;;;;;20.70;16.52;;;;;;;24.29;100.00;100815.50;5127333;56;1145332;-80
2023/06/21 21:04:25;;;;;;;24.12;19.57;;;;;;;24.34;100.00;100835.19;5106741;56;1144992;-70
2023/06/21 21:09:31;;;;;;;22.93;19.25;;;;;;;24.09;100.00;100835.66;5196251;55;1145281;-74
2023/06/21 21:14:37;;;;;;;21.85;19.50;;;;;;;23.93;100.00;100838.69;5194878;55;1145044;-74
2023/06/21 21:19:42;;;;;;;20.27;18.17;;;;;;;24.00;100.00;100834.66;5176663;55;1145090;-71
2023/06/21 21:24:48;;;;;;;18.43;16.43;;;;;;;24.15;100.00;100838.06;5103242;56;1145163;-79
2023/06/21 21:29:54;;;;;;;17.17;15.50;;;;;;;24.06;100.00;100852.78;5142891;54;1145133;-78
2023/06/21 21:34:59;;;;;;;26.33;11.33;;;;;;;23.73;100.00;100880.92;5195347;54;1144974;-76
2023/06/21 21:40:06;;;;;;;14.95;3.70;;;;;;;23.24;100.00;100901.94;5207383;54;1145152;-79
2023/06/21 21:45:12;;;;;;;14.20;6.13;;;;;;;22.72;100.00;100898.95;5174329;54;1143546;-83
2023/06/21 21:50:18;;;;;;;7.60;6.78;;;;;;;22.49;100.00;100881.22;5139106;55;1143467;-78
2023/06/21 21:55:26;;;;;;;14.68;10.70;;;;;;;22.58;100.00;100867.47;5196112;55;1140902;-79
2023/06/21 22:00:31;;;;;;;22.95;12.05;;;;;;;22.71;100.00;100866.78;5172992;55;1145430;-74
2023/06/21 22:05:37;;;;;;;14.30;11.68;;;;;;;22.84;100.00;100858.88;5153149;55;1145293;-72
2023/06/21 22:10:43;;;;;;;15.68;12.55;;;;;;;22.94;100.00;100854.50;5225488;54;1145201;-75
2023/06/21 22:15:51;;;;;;;17.73;13.32;;;;;;;23.05;100.00;100856.21;5233497;54;1145301;-82
2023/06/21 22:21:05;;;;;;;17.20;12.68;;;;;;;23.15;100.00;100861.28;5287528;54;1144941;-80
2023/06/21 22:26:08;;;;;;;14.45;12.95;;;;;;;23.04;100.00;100877.98;5317427;53;1145442;-73
2023/06/21 22:31:14;;;;;;;20.12;13.18;;;;;;;22.92;100.00;100879.48;5305224;54;1145299;-80
2023/06/21 22:36:23;;;;;;;13.15;11.88;;;;;;;23.00;100.00;100882.91;5218296;53;1145179;-78
2023/06/21 22:41:28;;;;;;;14.07;12.00;;;;;;;23.03;100.00;100875.80;5164340;55;1145077;-78
2023/06/21 22:46:34;;;;;;;14.30;12.45;;;;;;;22.96;100.00;100884.31;5097353;55;1144914;-78